Babda, Lebanon
Current Conditions -  °F | °C
As of 11:00 AM on Friday 28 Nov 2014 (Local Time) from OLBA Reporting Station
Broken Clouds Broken Clouds  
Wind Chill: 61°   Ceiling: 2600
Heat Index: 61°   Visibility: 6mi
Dew Point: 50°   Wind: 3mph
Humidity: 68%   Direction: 90°E
Pressure: 30.24"   Gusts: NA
Location:  33.88°N, 35.57°E
Report Text: OLBA 280800Z 09003KT 9999 BKN026 16/10 Q1024
Loading
Personal Weather Stations






























Interactive Weather Map New forecast layout! Learn more

10-Day Weather Forecast

Advertisements
Track Severe Weather on mobile